AirNav   MODERNIZE NOT PRIVATIZE ATC
 
 514 users online  

25AL Lucas Army Heliport
Fort Rucker/Goodman, Alabama, USA

GOING TO FORT RUCKER/GOODMAN?


FAA INFORMATION EFFECTIVE 20 JULY 2017

Location

FAA Identifier: 25AL
Lat/Long: 31-16-11.5500N / 086-02-27.3800W
31-16.192500N / 086-02.456333W
31.2698750 / -86.0409389
(estimated)
Elevation: 336 ft. / 102 m (estimated)
Variation: 02W (2000)
From city: 2 miles SW of central business district of the associated city
Time zone: UTC -5 (UTC -6 during Standard Time)
Zip code: 36323

Heliport Operations

Heliport use: Private use. Permission required prior to landing
Activation date: 05/2002
Control tower: no
ARTCC: JACKSONVILLE CENTER
FSS: ANNISTON FLIGHT SERVICE STATION
NOTAMs facility: OZR (NOTAM-D service available)
Attendance: UNATNDD EXCP DURG TRNG
Segmented circle: no

Heliport Communications

OPNS: 126.2
WX AWOS-3 at EDN (7 nm E): 118.9 (334-347-3524)
WX ASOS at 79J (18 nm W): 134.875 (334-222-9770)

Nearby radio navigation aids

VOR radial/distance  VOR name  Freq  Var
EDNr260/(7.3)ENTERPRISE VOR116.6003W
OZRr273/16.1CAIRNS VOR/DME111.2003W
HEYr256/(20.9)HANCHEY VOR110.6003W
RRSr266/31.3WIREGRASS VORTAC111.6002E

 
NDB name  Hdg/Dist  Freq  Var  ID
BOLL WEEVIL219/5.235203WBVG -... ...- --.
RUCKR283/11.821200EOZ --- --..
LOWE253/16.226903WLOR .-.. --- .-.
JUDD099/18.126402WJUY .--- ..- -.--
HANCHEY255/20.822103WHYE .... -.-- .
TRI COUNTY321/33.827503WBKK -... -.- -.-
BLOOD175/33.836501WTOI - --- ..

Heliport Services

Runway Information

Helipad H1

Dimensions: 1600 x 75 ft. / 488 x 23 m
Surface: asphalt
Traffic pattern: leftleft

Helipad H2

Dimensions: 1600 x 75 ft. / 488 x 23 m
Surface: asphalt
Traffic pattern: leftleft

Helipad H3

Dimensions: 1600 x 75 ft. / 488 x 23 m
Surface: asphalt
Traffic pattern: leftleft

Helipad H4

Dimensions: 1600 x 75 ft. / 488 x 23 m
Surface: asphalt
Traffic pattern: leftleft

Helipad H5

Dimensions: 1600 x 75 ft. / 488 x 23 m
Surface: asphalt
Traffic pattern: leftleft

Helipad H6

Dimensions: 1600 x 75 ft. / 488 x 23 m
Surface: asphalt
Traffic pattern: leftleft

Helipad H7

Dimensions: 1600 x 75 ft. / 488 x 23 m
Surface: turf
Traffic pattern: leftleft

Heliport Ownership and Management from official FAA records

Ownership: U.S. Army
Owner: US ARMY AVIATION CTR & FORT RUCKER
NOVOSEL ST
FORT RUCKER, AL 36362
Phone 334-255-9764
Manager: JACK A HOLMES
USAACE G3 AIR,
FORT RUCKER, AL 36362
Phone 334-255-9764

Instrument Procedures

There are no published instrument procedures at 25AL.

Some nearby airports with instrument procedures:

KEDN - Enterprise Municipal Airport (7 nm E)
KLOR - Lowe Army Heliport (Fort Rucker) (16 nm E)
33J - Geneva Municipal Airport (16 nm SE)
KOZR - Cairns Army Airfield (Fort Rucker) (17 nm E)
79J - South Alabama Regional Airport at Bill Benton Field (18 nm W)
0J4 - Florala Municipal Airport (19 nm SW)
 
Loc | Ops | Rwys | IFR | FBO | Links
Com | Nav | Svcs | Stats | Notes


 
Area around 25AL (Lucas Army Heliport)
 
Road maps at: MapQuest Bing Google
 
Aerial photo
No photo
 
Sectional chart

 
Airport distance calculator
Flying to Lucas Army Heliport? Find the distance to fly.

From to 25AL

Sunrise and sunset
Times for 22-Jul-2017
 Local
(UTC-5)
 Zulu
(UTC)
Morning civil twilight05:2910:29
Sunrise05:5610:56
Sunset19:4600:46
Evening civil twilight20:1301:13

Current date and time
Zulu (UTC)  23-Jul-2017 04:51:49
Local (UTC-5)  22-Jul-2017 23:51:49
 
METAR
KEDN 
7nm E 
230435Z AUTO 00000KT 10SM CLR 25/24 A3000 RMK AO2 T02490240
KSXS 
11nm NE 
222312Z AUTO 22007KT 10SM CLR 31/23 A2997 RMK AO2 LTG DSNT NE PRESRR SLP147
KLOR 
16nm E 
222316Z AUTO 17010G22KT 6SM RA BKN033 26/23 A2997 RMK AO2 RAB16 SLP130
KOZR 
17nm E 
222315Z AUTO 24008KT 10SM SCT033 BKN120 26/23 A2997 RMK AO2 RAE13DZB13E15 SLP149
K79J 
19nm W 
230356Z AUTO 00000KT 10SM CLR 26/23 A3000 RMK AO2 SLP153 T02560233
K0J4 
19nm SW 
230358Z AUTO 23003KT 10SM CLR 25/23 A3001 RMK AO2 SLP159 T02500228
TAF
KOZR 
17nm E 
222201Z 2222/2322 20006KT 9999 VCTS SCT050CB QNH2995INS TEMPO 2222/2224 19012G20KT 6000 -TSRA BKN050CB BECMG 2300/2301 20006KT 9999 NSW SCT045 QNH2996INS BECMG 2318/2319 20006KT 9999 VCTS SCT045CB QNH2992INS TEMPO 2319/2322 19012G20KT 6000 -TSRA BKN045CB BECMG 2321/2322 22009KT 9999 NSW BKN050 QNH2993INS TX34/2222Z TN22/2308Z
NOTAMs
Click for the latest NOTAMs
NOTAMs are issued by the DoD/FAA and will open in a separate window not controlled by AirNav.

 

 
 

Would you like to see your business listed on this page?

 If your business provides an interesting product or service to pilots, flight crews, aircraft, or users of the Lucas Army Heliport, you should consider listing it here.  To start the listing process, click on the button below
 
Add a business
 

Other Pages about Lucas Army Heliport

Update a link
 
Copyright © AirNav, LLC. All rights reserved. Privacy Policy  Contact